sensor_id;sensor_type;location;lat;lon;timestamp;pressure;altitude;pressure_sealevel;temperature;humidity
39555;BME280;25231;48.746;9.234;2022-10-31T00:01:26;97184.19;;;13.88;100.00
39555;BME280;25231;48.746;9.234;2022-10-31T00:03:53;97181.47;;;13.83;100.00
39555;BME280;25231;48.746;9.234;2022-10-31T00:06:19;97178.28;;;13.81;100.00
39555;BME280;25231;48.746;9.234;2022-10-31T00:08:52;97178.28;;;13.81;100.00
39555;BME280;25231;48.746;9.234;2022-10-31T00:11:17;97180.94;;;13.81;100.00
39555;BME280;25231;48.746;9.234;2022-10-31T00:13:43;97178.69;;;13.89;100.00
39555;BME280;25231;48.746;9.234;2022-10-31T00:16:19;97176.13;;;13.94;100.00
39555;BME280;25231;48.746;9.234;2022-10-31T00:18:48;97176.41;;;13.93;100.00
39555;BME280;25231;48.746;9.234;2022-10-31T00:21:14;97172.38;;;13.90;100.00
39555;BME280;25231;48.746;9.234;2022-10-31T00:23:40;97174.00;;;13.91;100.00
39555;BME280;25231;48.746;9.234;2022-10-31T00:26:05;97170.88;;;13.94;100.00
39555;BME280;25231;48.746;9.234;2022-10-31T00:28:32;97171.59;;;13.90;100.00
39555;BME280;25231;48.746;9.234;2022-10-31T00:31:02;97172.63;;;13.89;100.00
39555;BME280;25231;48.746;9.234;2022-10-31T00:33:28;97180.06;;;13.92;100.00
39555;BME280;25231;48.746;9.234;2022-10-31T00:35:54;97180.38;;;13.95;100.00
39555;BME280;25231;48.746;9.234;2022-10-31T00:38:20;97172.06;;;13.87;100.00
39555;BME280;25231;48.746;9.234;2022-10-31T00:40:45;97174.22;;;13.90;100.00
39555;BME280;25231;48.746;9.234;2022-10-31T00:43:11;97184.69;;;13.85;100.00
39555;BME280;25231;48.746;9.234;2022-10-31T00:45:36;97172.75;;;13.82;100.00
39555;BME280;25231;48.746;9.234;2022-10-31T00:48:01;97179.00;;;13.76;100.00
39555;BME280;25231;48.746;9.234;2022-10-31T00:50:27;97173.63;;;13.71;100.00
39555;BME280;25231;48.746;9.234;2022-10-31T00:52:52;97178.66;;;13.72;100.00
39555;BME280;25231;48.746;9.234;2022-10-31T00:55:18;97179.22;;;13.74;100.00
39555;BME280;25231;48.746;9.234;2022-10-31T00:57:46;97173.16;;;13.74;100.00
39555;BME280;25231;48.746;9.234;2022-10-31T01:00:13;97168.84;;;13.68;100.00
39555;BME280;25231;48.746;9.234;2022-10-31T01:02:39;97175.75;;;13.57;100.00
39555;BME280;25231;48.746;9.234;2022-10-31T01:05:05;97173.50;;;13.49;100.00
39555;BME280;25231;48.746;9.234;2022-10-31T01:07:30;97171.34;;;13.46;100.00
39555;BME280;25231;48.746;9.234;2022-10-31T01:09:55;97171.25;;;13.41;100.00
39555;BME280;25231;48.746;9.234;2022-10-31T01:12:21;97173.97;;;13.46;100.00
39555;BME280;25231;48.746;9.234;2022-10-31T01:14:46;97170.44;;;13.41;100.00
39555;BME280;25231;48.746;9.234;2022-10-31T01:17:13;97170.56;;;13.34;100.00
39555;BME280;25231;48.746;9.234;2022-10-31T01:19:39;97165.88;;;13.36;100.00
39555;BME280;25231;48.746;9.234;2022-10-31T01:22:04;97171.06;;;13.31;100.00
39555;BME280;25231;48.746;9.234;2022-10-31T01:24:30;97170.56;;;13.34;100.00
39555;BME280;25231;48.746;9.234;2022-10-31T01:26:55;97173.59;;;13.26;100.00
39555;BME280;25231;48.746;9.234;2022-10-31T01:29:21;97166.72;;;13.25;100.00
39555;BME280;25231;48.746;9.234;2022-10-31T01:31:46;97165.88;;;13.36;100.00
39555;BME280;25231;48.746;9.234;2022-10-31T01:34:16;97168.53;;;13.36;100.00
39555;BME280;25231;48.746;9.234;2022-10-31T01:36:42;97168.19;;;13.21;100.00
39555;BME280;25231;48.746;9.234;2022-10-31T01:39:13;97163.50;;;13.23;100.00
39555;BME280;25231;48.746;9.234;2022-10-31T01:41:41;97168.56;;;13.24;100.00
39555;BME280;25231;48.746;9.234;2022-10-31T01:46:47;97169.00;;;13.10;100.00
39555;BME280;25231;48.746;9.234;2022-10-31T01:51:57;97159.41;;;13.15;100.00
39555;BME280;25231;48.746;9.234;2022-10-31T01:54:26;97157.03;;;13.14;100.00
39555;BME280;25231;48.746;9.234;2022-10-31T01:56:56;97149.56;;;13.22;100.00
39555;BME280;25231;48.746;9.234;2022-10-31T01:59:25;97152.66;;;13.19;100.00
39555;BME280;25231;48.746;9.234;2022-10-31T02:01:51;97150.44;;;13.28;100.00
39555;BME280;25231;48.746;9.234;2022-10-31T02:04:18;97148.47;;;13.35;100.00
39555;BME280;25231;48.746;9.234;2022-10-31T02:06:53;97149.84;;;13.38;100.00
39555;BME280;25231;48.746;9.234;2022-10-31T02:09:20;97150.28;;;13.46;100.00
39555;BME280;25231;48.746;9.234;2022-10-31T02:11:51;97151.41;;;13.50;100.00
39555;BME280;25231;48.746;9.234;2022-10-31T02:14:17;97148.63;;;13.57;100.00
39555;BME280;25231;48.746;9.234;2022-10-31T02:16:43;97149.56;;;13.51;100.00
39555;BME280;25231;48.746;9.234;2022-10-31T02:19:12;97142.59;;;13.45;100.00
39555;BME280;25231;48.746;9.234;2022-10-31T02:21:53;97147.88;;;13.45;100.00
39555;BME280;25231;48.746;9.234;2022-10-31T02:30:23;97153.13;;;13.16;100.00
39555;BME280;25231;48.746;9.234;2022-10-31T02:32:52;97146.91;;;13.11;100.00
39555;BME280;25231;48.746;9.234;2022-10-31T02:35:24;97142.38;;;13.18;100.00
39555;BME280;25231;48.746;9.234;2022-10-31T02:38:17;97143.75;;;13.20;100.00
39555;BME280;25231;48.746;9.234;2022-10-31T02:49:18;97143.00;;;12.85;100.00
39555;BME280;25231;48.746;9.234;2022-10-31T02:51:47;97143.81;;;12.50;100.00
39555;BME280;25231;48.746;9.234;2022-10-31T02:54:24;97146.69;;;12.14;100.00
39555;BME280;25231;48.746;9.234;2022-10-31T02:57:03;97146.13;;;12.24;100.00
39555;BME280;25231;48.746;9.234;2022-10-31T02:59:30;97144.38;;;12.06;100.00
39555;BME280;25231;48.746;9.234;2022-10-31T03:02:42;97140.94;;;12.05;100.00
39555;BME280;25231;48.746;9.234;2022-10-31T03:07:21;97144.38;;;11.94;100.00
39555;BME280;25231;48.746;9.234;2022-10-31T03:15:43;97133.50;;;11.91;100.00
39555;BME280;25231;48.746;9.234;2022-10-31T03:18:15;97136.03;;;11.97;100.00
39555;BME280;25231;48.746;9.234;2022-10-31T03:20:46;97136.91;;;11.80;100.00
39555;BME280;25231;48.746;9.234;2022-10-31T03:23:15;97137.47;;;11.82;100.00
39555;BME280;25231;48.746;9.234;2022-10-31T03:25:43;97131.16;;;11.71;100.00
39555;BME280;25231;48.746;9.234;2022-10-31T03:28:11;97134.38;;;11.73;100.00
39555;BME280;25231;48.746;9.234;2022-10-31T03:30:41;97139.38;;;11.63;100.00
39555;BME280;25231;48.746;9.234;2022-10-31T03:33:13;97129.19;;;11.66;100.00
39555;BME280;25231;48.746;9.234;2022-10-31T03:35:42;97138.41;;;11.76;100.00
39555;BME280;25231;48.746;9.234;2022-10-31T03:38:11;97136.34;;;11.78;100.00
39555;BME280;25231;48.746;9.234;2022-10-31T03:40:40;97137.19;;;11.72;100.00
39555;BME280;25231;48.746;9.234;2022-10-31T03:43:13;97139.38;;;11.63;100.00
39555;BME280;25231;48.746;9.234;2022-10-31T03:45:44;97141.88;;;11.58;100.00
39555;BME280;25231;48.746;9.234;2022-10-31T03:48:11;97141.88;;;11.58;100.00
39555;BME280;25231;48.746;9.234;2022-10-31T03:51:04;97140.69;;;11.54;100.00
39555;BME280;25231;48.746;9.234;2022-10-31T03:53:39;97136.56;;;11.76;100.00
39555;BME280;25231;48.746;9.234;2022-10-31T03:56:21;97140.16;;;11.63;100.00
39555;BME280;25231;48.746;9.234;2022-10-31T03:58:56;97135.59;;;11.59;100.00
39555;BME280;25231;48.746;9.234;2022-10-31T04:01:24;97138.44;;;11.57;100.00
39555;BME280;25231;48.746;9.234;2022-10-31T04:03:51;97133.28;;;11.51;100.00
39555;BME280;25231;48.746;9.234;2022-10-31T04:06:18;97133.34;;;11.44;100.00
39555;BME280;25231;48.746;9.234;2022-10-31T04:08:49;97134.03;;;11.40;100.00
39555;BME280;25231;48.746;9.234;2022-10-31T04:11:18;97133.06;;;11.52;100.00
39555;BME280;25231;48.746;9.234;2022-10-31T04:13:45;97135.56;;;11.47;100.00
39555;BME280;25231;48.746;9.234;2022-10-31T04:16:13;97135.94;;;11.33;100.00
39555;BME280;25231;48.746;9.234;2022-10-31T04:18:40;97136.53;;;11.35;100.00
39555;BME280;25231;48.746;9.234;2022-10-31T04:21:07;97138.00;;;11.31;100.00
39555;BME280;25231;48.746;9.234;2022-10-31T04:23:34;97132.91;;;11.17;100.00
39555;BME280;25231;48.746;9.234;2022-10-31T04:26:00;97131.09;;;11.18;100.00
39555;BME280;25231;48.746;9.234;2022-10-31T04:28:26;97124.59;;;11.20;100.00
39555;BME280;25231;48.746;9.234;2022-10-31T04:30:52;97129.28;;;11.18;100.00
39555;BME280;25231;48.746;9.234;2022-10-31T04:33:17;97132.47;;;11.20;100.00
39555;BME280;25231;48.746;9.234;2022-10-31T04:35:43;97130.38;;;11.11;100.00
39555;BME280;25231;48.746;9.234;2022-10-31T04:38:08;97127.88;;;11.16;100.00
39555;BME280;25231;48.746;9.234;2022-10-31T04:40:34;97122.19;;;11.19;100.00
39555;BME280;25231;48.746;9.234;2022-10-31T04:42:59;97115.56;;;11.16;100.00
39555;BME280;25231;48.746;9.234;2022-10-31T04:45:24;97111.72;;;11.19;100.00
39555;BME280;25231;48.746;9.234;2022-10-31T04:47:50;97109.22;;;11.24;100.00
39555;BME280;25231;48.746;9.234;2022-10-31T04:50:16;97105.56;;;11.25;100.00
39555;BME280;25231;48.746;9.234;2022-10-31T04:52:43;97103.09;;;11.30;100.00
39555;BME280;25231;48.746;9.234;2022-10-31T04:55:09;97105.75;;;11.42;100.00
39555;BME280;25231;48.746;9.234;2022-10-31T04:57:45;97103.88;;;11.31;100.00
39555;BME280;25231;48.746;9.234;2022-10-31T05:00:11;97106.94;;;11.27;100.00
39555;BME280;25231;48.746;9.234;2022-10-31T05:02:51;97103.22;;;11.35;100.00
39555;BME280;25231;48.746;9.234;2022-10-31T05:05:19;97104.41;;;11.21;100.00
39555;BME280;25231;48.746;9.234;2022-10-31T05:07:47;97103.59;;;11.20;100.00
39555;BME280;25231;48.746;9.234;2022-10-31T05:10:15;97102.38;;;11.23;100.00
39555;BME280;25231;48.746;9.234;2022-10-31T05:12:53;97099.16;;;11.21;100.00
39555;BME280;25231;48.746;9.234;2022-10-31T05:15:20;97094.97;;;11.02;100.00
39555;BME280;25231;48.746;9.234;2022-10-31T05:17:45;97087.84;;;10.91;100.00
39555;BME280;25231;48.746;9.234;2022-10-31T05:20:13;97087.13;;;10.83;100.00
39555;BME280;25231;48.746;9.234;2022-10-31T05:22:43;97095.59;;;10.86;100.00
39555;BME280;25231;48.746;9.234;2022-10-31T05:25:10;97089.75;;;10.83;100.00
39555;BME280;25231;48.746;9.234;2022-10-31T05:27:42;97085.38;;;10.96;100.00
39555;BME280;25231;48.746;9.234;2022-10-31T05:30:08;97092.16;;;11.03;100.00
39555;BME280;25231;48.746;9.234;2022-10-31T05:32:45;97092.44;;;10.77;100.00
39555;BME280;25231;48.746;9.234;2022-10-31T05:35:16;97093.38;;;10.82;100.00
39555;BME280;25231;48.746;9.234;2022-10-31T05:37:42;97091.09;;;10.74;100.00
39555;BME280;25231;48.746;9.234;2022-10-31T05:40:09;97087.38;;;10.64;100.00
39555;BME280;25231;48.746;9.234;2022-10-31T05:42:35;97083.72;;;10.65;100.00
39555;BME280;25231;48.746;9.234;2022-10-31T05:45:00;97090.41;;;10.61;100.00
39555;BME280;25231;48.746;9.234;2022-10-31T05:47:26;97083.44;;;10.55;100.00
39555;BME280;25231;48.746;9.234;2022-10-31T05:49:51;97084.91;;;10.51;100.00
39555;BME280;25231;48.746;9.234;2022-10-31T05:52:17;97081.91;;;10.47;100.00
39555;BME280;25231;48.746;9.234;2022-10-31T05:54:42;97075.06;;;10.46;100.00
39555;BME280;25231;48.746;9.234;2022-10-31T05:57:08;97090.19;;;10.44;100.00
39555;BME280;25231;48.746;9.234;2022-10-31T05:59:34;97073.47;;;10.45;100.00
39555;BME280;25231;48.746;9.234;2022-10-31T06:01:59;97071.56;;;10.52;100.00
39555;BME280;25231;48.746;9.234;2022-10-31T06:04:24;97082.06;;;10.52;100.00
39555;BME280;25231;48.746;9.234;2022-10-31T06:06:50;97081.75;;;10.60;100.00
39555;BME280;25231;48.746;9.234;2022-10-31T06:09:15;97081.09;;;10.65;100.00
39555;BME280;25231;48.746;9.234;2022-10-31T06:11:41;97073.81;;;10.67;100.00
39555;BME280;25231;48.746;9.234;2022-10-31T06:14:06;97076.09;;;10.63;100.00
39555;BME280;25231;48.746;9.234;2022-10-31T06:16:32;97071.41;;;10.65;100.00
39555;BME280;25231;48.746;9.234;2022-10-31T06:18:57;97075.09;;;10.94;100.00
39555;BME280;25231;48.746;9.234;2022-10-31T06:21:23;97074.81;;;10.84;100.00
39555;BME280;25231;48.746;9.234;2022-10-31T06:23:49;97078.16;;;10.91;100.00
39555;BME280;25231;48.746;9.234;2022-10-31T06:26:14;97078.09;;;10.98;100.00
39555;BME280;25231;48.746;9.234;2022-10-31T06:28:40;97077.78;;;11.06;100.00
39555;BME280;25231;48.746;9.234;2022-10-31T06:31:05;97083.53;;;11.14;100.00
39555;BME280;25231;48.746;9.234;2022-10-31T06:33:30;97076.66;;;11.13;100.00
39555;BME280;25231;48.746;9.234;2022-10-31T06:35:56;97082.03;;;11.18;100.00
39555;BME280;25231;48.746;9.234;2022-10-31T06:38:21;97074.81;;;11.44;100.00
39555;BME280;25231;48.746;9.234;2022-10-31T06:40:47;97078.59;;;11.59;100.00
39555;BME280;25231;48.746;9.234;2022-10-31T06:43:12;97079.19;;;11.61;100.00
39555;BME280;25231;48.746;9.234;2022-10-31T06:45:39;97078.97;;;11.63;100.00
39555;BME280;25231;48.746;9.234;2022-10-31T06:48:05;97076.22;;;11.58;100.00
39555;BME280;25231;48.746;9.234;2022-10-31T06:50:30;97081.72;;;11.68;100.00
39555;BME280;25231;48.746;9.234;2022-10-31T06:52:57;97076.97;;;11.88;100.00
39555;BME280;25231;48.746;9.234;2022-10-31T06:55:24;97079.94;;;11.80;100.00
39555;BME280;25231;48.746;9.234;2022-10-31T06:57:59;97085.09;;;11.75;100.00
39555;BME280;25231;48.746;9.234;2022-10-31T07:00:26;97083.66;;;11.73;100.00
39555;BME280;25231;48.746;9.234;2022-10-31T07:05:18;97081.31;;;11.83;100.00
39555;BME280;25231;48.746;9.234;2022-10-31T07:07:44;97082.25;;;12.12;100.00
39555;BME280;25231;48.746;9.234;2022-10-31T07:10:09;97081.44;;;12.11;100.00
39555;BME280;25231;48.746;9.234;2022-10-31T07:12:34;97082.34;;;12.28;100.00
39555;BME280;25231;48.746;9.234;2022-10-31T07:15:00;97072.84;;;12.50;100.00
39555;BME280;25231;48.746;9.234;2022-10-31T07:17:25;97077.88;;;12.52;100.00
39555;BME280;25231;48.746;9.234;2022-10-31T07:19:50;97079.94;;;12.50;100.00
39555;BME280;25231;48.746;9.234;2022-10-31T07:22:16;97089.03;;;12.71;100.00
39555;BME280;25231;48.746;9.234;2022-10-31T07:24:41;97088.66;;;12.90;100.00
39555;BME280;25231;48.746;9.234;2022-10-31T07:27:07;97084.56;;;12.71;100.00
39555;BME280;25231;48.746;9.234;2022-10-31T07:29:32;97092.69;;;12.81;100.00
39555;BME280;25231;48.746;9.234;2022-10-31T07:31:57;97094.66;;;12.63;100.00
39555;BME280;25231;48.746;9.234;2022-10-31T07:34:23;97092.63;;;12.53;100.00
39555;BME280;25231;48.746;9.234;2022-10-31T07:36:50;97094.06;;;12.61;100.00
39555;BME280;25231;48.746;9.234;2022-10-31T07:39:15;97084.97;;;12.28;100.00
39555;BME280;25231;48.746;9.234;2022-10-31T07:41:41;97085.56;;;12.30;100.00
39555;BME280;25231;48.746;9.234;2022-10-31T07:44:06;97086.22;;;12.37;100.00
39555;BME280;25231;48.746;9.234;2022-10-31T07:46:31;97080.81;;;12.67;100.00
39555;BME280;25231;48.746;9.234;2022-10-31T07:48:57;97088.78;;;12.84;100.00
39555;BME280;25231;48.746;9.234;2022-10-31T07:51:22;97083.75;;;12.82;100.00
39555;BME280;25231;48.746;9.234;2022-10-31T07:53:49;97081.75;;;12.49;100.00
39555;BME280;25231;48.746;9.234;2022-10-31T07:56:14;97086.34;;;12.42;100.00
39555;BME280;25231;48.746;9.234;2022-10-31T07:58:40;97092.88;;;12.28;100.00
39555;BME280;25231;48.746;9.234;2022-10-31T08:01:05;97090.56;;;12.32;100.00
39555;BME280;25231;48.746;9.234;2022-10-31T08:03:31;97085.44;;;12.37;100.00
39555;BME280;25231;48.746;9.234;2022-10-31T08:05:56;97084.06;;;12.23;100.00
39555;BME280;25231;48.746;9.234;2022-10-31T08:08:22;97092.38;;;12.43;100.00
39555;BME280;25231;48.746;9.234;2022-10-31T08:10:49;97085.50;;;12.65;100.00
39555;BME280;25231;48.746;9.234;2022-10-31T08:13:14;97087.66;;;12.68;100.00
39555;BME280;25231;48.746;9.234;2022-10-31T08:15:40;97089.47;;;12.79;100.00
39555;BME280;25231;48.746;9.234;2022-10-31T08:18:12;97088.06;;;12.88;100.00
39555;BME280;25231;48.746;9.234;2022-10-31T08:20:38;97088.13;;;13.17;100.00
39555;BME280;25231;48.746;9.234;2022-10-31T08:23:05;97090.19;;;13.15;100.00
39555;BME280;25231;48.746;9.234;2022-10-31T08:25:32;97085.78;;;13.49;100.00
39555;BME280;25231;48.746;9.234;2022-10-31T08:27:58;97085.19;;;13.58;100.00
39555;BME280;25231;48.746;9.234;2022-10-31T08:30:26;97091.72;;;13.27;100.00
39555;BME280;25231;48.746;9.234;2022-10-31T08:33:08;97083.09;;;13.60;100.00
39555;BME280;25231;48.746;9.234;2022-10-31T08:35:37;97084.94;;;13.93;100.00
39555;BME280;25231;48.746;9.234;2022-10-31T08:38:03;97074.16;;;13.95;100.00
39555;BME280;25231;48.746;9.234;2022-10-31T08:40:30;97077.34;;;14.13;100.00
39555;BME280;25231;48.746;9.234;2022-10-31T08:43:01;97070.78;;;14.16;100.00
39555;BME280;25231;48.746;9.234;2022-10-31T08:45:27;97067.09;;;14.34;100.00
39555;BME280;25231;48.746;9.234;2022-10-31T08:47:57;97070.56;;;14.18;100.00
39555;BME280;25231;48.746;9.234;2022-10-31T08:50:23;97067.41;;;14.54;100.00
39555;BME280;25231;48.746;9.234;2022-10-31T08:52:49;97060.31;;;14.38;100.00
39555;BME280;25231;48.746;9.234;2022-10-31T08:55:14;97064.88;;;14.64;100.00
39555;BME280;25231;48.746;9.234;2022-10-31T08:57:40;97062.94;;;14.76;100.00
39555;BME280;25231;48.746;9.234;2022-10-31T09:00:06;97063.09;;;14.48;100.00
39555;BME280;25231;48.746;9.234;2022-10-31T09:02:31;97055.50;;;14.35;100.00
39555;BME280;25231;48.746;9.234;2022-10-31T09:04:57;97052.06;;;14.51;100.00
39555;BME280;25231;48.746;9.234;2022-10-31T09:07:22;97052.09;;;14.78;100.00
39555;BME280;25231;48.746;9.234;2022-10-31T09:09:48;97058.22;;;15.05;100.00
39555;BME280;25231;48.746;9.234;2022-10-31T09:12:13;97062.06;;;15.19;100.00
39555;BME280;25231;48.746;9.234;2022-10-31T09:14:38;97058.25;;;15.32;100.00
39555;BME280;25231;48.746;9.234;2022-10-31T09:17:04;97060.91;;;15.32;100.00
39555;BME280;25231;48.746;9.234;2022-10-31T09:19:29;97059.63;;;15.66;100.00
39555;BME280;25231;48.746;9.234;2022-10-31T09:21:55;97055.75;;;15.47;100.00
39555;BME280;25231;48.746;9.234;2022-10-31T09:24:21;97052.19;;;15.58;100.00
39555;BME280;25231;48.746;9.234;2022-10-31T09:26:47;97060.53;;;15.77;100.00
39555;BME280;25231;48.746;9.234;2022-10-31T09:29:12;97054.00;;;15.31;100.00
39555;BME280;25231;48.746;9.234;2022-10-31T09:31:38;97046.94;;;15.36;100.00
39555;BME280;25231;48.746;9.234;2022-10-31T09:34:03;97056.03;;;15.51;100.00
39555;BME280;25231;48.746;9.234;2022-10-31T09:36:29;97053.38;;;15.51;100.00
39555;BME280;25231;48.746;9.234;2022-10-31T09:38:54;97057.31;;;15.43;100.00
39555;BME280;25231;48.746;9.234;2022-10-31T09:41:37;97047.50;;;15.44;100.00
39555;BME280;25231;48.746;9.234;2022-10-31T09:52:13;97042.66;;;15.57;100.00
39555;BME280;25231;48.746;9.234;2022-10-31T09:54:47;97048.22;;;15.61;100.00
39555;BME280;25231;48.746;9.234;2022-10-31T09:57:18;97048.88;;;15.78;100.00
39555;BME280;25231;48.746;9.234;2022-10-31T09:59:46;97050.00;;;15.82;100.00
39555;BME280;25231;48.746;9.234;2022-10-31T10:02:24;97045.00;;;15.86;100.00
39555;BME280;25231;48.746;9.234;2022-10-31T10:04:59;97033.00;;;15.73;100.00
39555;BME280;25231;48.746;9.234;2022-10-31T10:15:33;97025.94;;;16.26;100.00
39555;BME280;25231;48.746;9.234;2022-10-31T10:18:03;97029.72;;;16.45;100.00
39555;BME280;25231;48.746;9.234;2022-10-31T10:23:43;97030.56;;;16.55;100.00
39555;BME280;25231;48.746;9.234;2022-10-31T10:26:17;97032.56;;;16.75;100.00
39555;BME280;25231;48.746;9.234;2022-10-31T10:28:54;97027.41;;;16.53;100.00
39555;BME280;25231;48.746;9.234;2022-10-31T10:31:48;97025.53;;;16.44;100.00
39555;BME280;25231;48.746;9.234;2022-10-31T10:34:23;97028.69;;;16.46;100.00
39555;BME280;25231;48.746;9.234;2022-10-31T10:36:56;97027.09;;;16.50;100.00
39555;BME280;25231;48.746;9.234;2022-10-31T10:41:49;97024.97;;;16.42;100.00
39555;BME280;25231;48.746;9.234;2022-10-31T10:44:37;97024.69;;;16.38;100.00
39555;BME280;25231;48.746;9.234;2022-10-31T10:47:22;97025.09;;;16.67;100.00
39555;BME280;25231;48.746;9.234;2022-10-31T10:50:10;97022.81;;;16.39;100.00
39555;BME280;25231;48.746;9.234;2022-10-31T10:58:02;97014.38;;;16.42;100.00
39555;BME280;25231;48.746;9.234;2022-10-31T11:00:35;97009.59;;;16.39;99.58
39555;BME280;25231;48.746;9.234;2022-10-31T11:03:01;97002.00;;;16.57;97.84
39555;BME280;25231;48.746;9.234;2022-10-31T11:05:35;96996.53;;;16.74;97.06
39555;BME280;25231;48.746;9.234;2022-10-31T11:08:01;97000.53;;;16.82;96.55
39555;BME280;25231;48.746;9.234;2022-10-31T11:10:27;96992.28;;;16.63;96.59
39555;BME280;25231;48.746;9.234;2022-10-31T11:18:38;96992.91;;;17.05;92.23
39555;BME280;25231;48.746;9.234;2022-10-31T11:21:04;96978.34;;;16.98;93.19
39555;BME280;25231;48.746;9.234;2022-10-31T11:23:31;96976.19;;;16.90;92.99
39555;BME280;25231;48.746;9.234;2022-10-31T11:25:59;96978.84;;;16.95;92.74
39555;BME280;25231;48.746;9.234;2022-10-31T11:28:27;96967.25;;;17.36;91.79
39555;BME280;25231;48.746;9.234;2022-10-31T11:30:56;96969.34;;;17.29;91.89
39555;BME280;25231;48.746;9.234;2022-10-31T11:33:37;96959.84;;;17.49;88.79
39555;BME280;25231;48.746;9.234;2022-10-31T11:36:35;96950.03;;;17.64;89.12
39555;BME280;25231;48.746;9.234;2022-10-31T11:39:04;96949.22;;;17.69;89.07
39555;BME280;25231;48.746;9.234;2022-10-31T11:41:36;96950.28;;;17.73;89.49
39555;BME280;25231;48.746;9.234;2022-10-31T11:44:04;96944.16;;;17.93;88.92
39555;BME280;25231;48.746;9.234;2022-10-31T11:46:48;96939.69;;;17.83;88.41
39555;BME280;25231;48.746;9.234;2022-10-31T11:49:19;96939.66;;;17.88;89.46
39555;BME280;25231;48.746;9.234;2022-10-31T11:51:55;96938.28;;;18.11;89.14
39555;BME280;25231;48.746;9.234;2022-10-31T11:54:29;96938.97;;;18.37;86.54
39555;BME280;25231;48.746;9.234;2022-10-31T11:56:55;96935.50;;;18.41;87.36
39555;BME280;25231;48.746;9.234;2022-10-31T11:59:31;96934.22;;;18.28;87.42
39555;BME280;25231;48.746;9.234;2022-10-31T12:01:58;96932.34;;;18.29;85.16
39555;BME280;25231;48.746;9.234;2022-10-31T12:04:40;96926.53;;;18.27;83.63
39555;BME280;25231;48.746;9.234;2022-10-31T12:07:08;96924.75;;;18.07;83.37
39555;BME280;25231;48.746;9.234;2022-10-31T12:09:35;96920.00;;;17.99;83.49
39555;BME280;25231;48.746;9.234;2022-10-31T12:15:08;96909.53;;;18.28;82.09
39555;BME280;25231;48.746;9.234;2022-10-31T12:26:25;96891.28;;;18.71;81.52
39555;BME280;25231;48.746;9.234;2022-10-31T12:29:06;96895.97;;;18.84;80.78
39555;BME280;25231;48.746;9.234;2022-10-31T12:40:15;96883.78;;;18.28;86.56
39555;BME280;25231;48.746;9.234;2022-10-31T12:42:57;96880.66;;;18.21;86.92
39555;BME280;25231;48.746;9.234;2022-10-31T12:48:14;96875.41;;;18.01;86.03
39555;BME280;25231;48.746;9.234;2022-10-31T12:56:10;96854.06;;;17.67;87.73
39555;BME280;25231;48.746;9.234;2022-10-31T13:01:20;96847.03;;;18.02;86.42
39555;BME280;25231;48.746;9.234;2022-10-31T13:03:59;96845.47;;;17.96;86.35
39555;BME280;25231;48.746;9.234;2022-10-31T13:06:34;96834.19;;;17.70;87.59
39555;BME280;25231;48.746;9.234;2022-10-31T13:09:09;96828.31;;;17.73;87.11
39555;BME280;25231;48.746;9.234;2022-10-31T13:11:53;96832.00;;;17.87;86.99
39555;BME280;25231;48.746;9.234;2022-10-31T13:14:29;96830.75;;;17.64;88.56
39555;BME280;25231;48.746;9.234;2022-10-31T13:16:59;96830.72;;;17.69;88.85
39555;BME280;25231;48.746;9.234;2022-10-31T13:19:30;96824.38;;;17.70;88.84
39555;BME280;25231;48.746;9.234;2022-10-31T13:22:24;96814.97;;;17.98;87.58
39555;BME280;25231;48.746;9.234;2022-10-31T13:27:26;96806.84;;;17.74;90.00
39555;BME280;25231;48.746;9.234;2022-10-31T13:30:10;96809.53;;;17.59;91.28
39555;BME280;25231;48.746;9.234;2022-10-31T13:32:47;96810.34;;;17.65;92.04
39555;BME280;25231;48.746;9.234;2022-10-31T13:38:41;96810.06;;;17.71;93.59
39555;BME280;25231;48.746;9.234;2022-10-31T13:44:10;96807.56;;;17.90;91.59
39555;BME280;25231;48.746;9.234;2022-10-31T13:46:38;96809.75;;;18.32;87.28
39555;BME280;25231;48.746;9.234;2022-10-31T13:51:47;96811.38;;;18.72;80.95
39555;BME280;25231;48.746;9.234;2022-10-31T13:54:31;96799.16;;;18.71;80.59
39555;BME280;25231;48.746;9.234;2022-10-31T13:56:57;96795.44;;;18.72;80.45
39555;BME280;25231;48.746;9.234;2022-10-31T13:59:24;96784.47;;;18.79;81.19
39555;BME280;25231;48.746;9.234;2022-10-31T14:01:58;96787.88;;;18.55;81.88
39555;BME280;25231;48.746;9.234;2022-10-31T14:04:38;96786.19;;;18.20;80.95
39555;BME280;25231;48.746;9.234;2022-10-31T14:07:15;96782.91;;;18.34;82.15
39555;BME280;25231;48.746;9.234;2022-10-31T14:12:28;96786.72;;;18.17;85.46
39555;BME280;25231;48.746;9.234;2022-10-31T14:14:59;96785.75;;;18.08;86.28
39555;BME280;25231;48.746;9.234;2022-10-31T14:17:31;96787.81;;;18.16;85.57
39555;BME280;25231;48.746;9.234;2022-10-31T14:20:22;96783.56;;;18.20;85.39
39555;BME280;25231;48.746;9.234;2022-10-31T14:22:46;96776.09;;;18.27;83.92
39555;BME280;25231;48.746;9.234;2022-10-31T14:25:44;96765.56;;;18.07;82.10
39555;BME280;25231;48.746;9.234;2022-10-31T14:28:31;96770.84;;;18.12;80.94
39555;BME280;25231;48.746;9.234;2022-10-31T14:30:58;96767.06;;;18.23;80.31
39555;BME280;25231;48.746;9.234;2022-10-31T14:33:28;96767.38;;;18.22;79.87
39555;BME280;25231;48.746;9.234;2022-10-31T14:36:08;96769.00;;;18.13;78.47
39555;BME280;25231;48.746;9.234;2022-10-31T14:49:19;96766.88;;;17.66;83.37
39555;BME280;25231;48.746;9.234;2022-10-31T14:51:48;96764.72;;;17.68;83.49
39555;BME280;25231;48.746;9.234;2022-10-31T14:54:19;96757.84;;;17.62;83.67
39555;BME280;25231;48.746;9.234;2022-10-31T14:56:53;96757.34;;;17.50;84.82
39555;BME280;25231;48.746;9.234;2022-10-31T14:59:22;96761.34;;;17.42;85.95
39555;BME280;25231;48.746;9.234;2022-10-31T15:01:58;96757.13;;;17.36;87.00
39555;BME280;25231;48.746;9.234;2022-10-31T15:04:29;96756.59;;;17.34;87.32